KGCY/GCY METAR and TAF weather

Enter ICAO airport designator
Station Type Date Time Source
KGCY METAR 2020/11/27 14:55 UTC NOAA

KGCY 271455Z AUTO 24005KT 10SM CLR 11/08 A3018 RMK A01


Station Type Date Time Source
KGCY Decoded METAR 2020/11/27 14:55 UTC NOAA

Station name not available
Nov 27, 2020 - 09:55 AM EST / 2020.11.27 1455 UTC
Wind: from the WSW (240 degrees) at 6 MPH (5 KT):0
Visibility: 10 mile(s):0
Sky conditions: clear
Temperature: 51 F (11 C)
Dew Point: 46 F (8 C)
Relative Humidity: 81%
Pressure (altimeter): 30.18 in. Hg (1022 hPa)
ob: KGCY 271455Z AUTO 24005KT 10SM CLR 11/08 A3018 RMK A01
cycle: 15

Station Type Date Time Source
KGCY TAF UTC NOAA

Error!

Example: see airport list